sensor_id;sensor_type;location;lat;lon;timestamp;temperature;humidity
27559;DHT22;15002;52.028;5.670;2023-08-06T00:00:22;18.80;99.90
27559;DHT22;15002;52.028;5.670;2023-08-06T00:02:48;18.90;99.90
27559;DHT22;15002;52.028;5.670;2023-08-06T00:05:13;18.80;99.90
27559;DHT22;15002;52.028;5.670;2023-08-06T00:07:39;18.80;99.90
27559;DHT22;15002;52.028;5.670;2023-08-06T00:10:05;18.50;99.90
27559;DHT22;15002;52.028;5.670;2023-08-06T00:12:30;18.90;99.90
27559;DHT22;15002;52.028;5.670;2023-08-06T00:14:56;18.50;99.90
27559;DHT22;15002;52.028;5.670;2023-08-06T00:17:22;18.50;99.90
27559;DHT22;15002;52.028;5.670;2023-08-06T00:19:47;18.30;99.90
27559;DHT22;15002;52.028;5.670;2023-08-06T00:22:13;18.30;99.90
27559;DHT22;15002;52.028;5.670;2023-08-06T00:24:39;18.50;99.90
27559;DHT22;15002;52.028;5.670;2023-08-06T00:27:04;18.30;99.90
27559;DHT22;15002;52.028;5.670;2023-08-06T00:29:30;18.30;99.90
27559;DHT22;15002;52.028;5.670;2023-08-06T00:31:56;18.50;99.90
27559;DHT22;15002;52.028;5.670;2023-08-06T00:34:21;18.70;99.90
27559;DHT22;15002;52.028;5.670;2023-08-06T00:36:47;18.60;99.90
27559;DHT22;15002;52.028;5.670;2023-08-06T00:39:13;18.90;99.90
27559;DHT22;15002;52.028;5.670;2023-08-06T00:41:39;18.70;99.90
27559;DHT22;15002;52.028;5.670;2023-08-06T00:44:04;18.60;99.90
27559;DHT22;15002;52.028;5.670;2023-08-06T00:46:31;18.50;99.90
27559;DHT22;15002;52.028;5.670;2023-08-06T00:48:57;18.70;99.90
27559;DHT22;15002;52.028;5.670;2023-08-06T00:51:22;18.60;99.90
27559;DHT22;15002;52.028;5.670;2023-08-06T00:53:49;18.50;99.90
27559;DHT22;15002;52.028;5.670;2023-08-06T00:56:15;18.60;99.90
27559;DHT22;15002;52.028;5.670;2023-08-06T00:58:41;18.70;99.90
27559;DHT22;15002;52.028;5.670;2023-08-06T01:01:07;18.60;99.90
27559;DHT22;15002;52.028;5.670;2023-08-06T01:03:33;18.40;99.90
27559;DHT22;15002;52.028;5.670;2023-08-06T01:05:58;18.50;99.90
27559;DHT22;15002;52.028;5.670;2023-08-06T01:11:40;18.40;99.90
27559;DHT22;15002;52.028;5.670;2023-08-06T01:16:58;18.20;99.90
27559;DHT22;15002;52.028;5.670;2023-08-06T01:19:24;18.30;99.90
27559;DHT22;15002;52.028;5.670;2023-08-06T01:21:50;18.30;99.90
27559;DHT22;15002;52.028;5.670;2023-08-06T01:24:16;18.40;99.90
27559;DHT22;15002;52.028;5.670;2023-08-06T01:27:03;18.20;99.90
27559;DHT22;15002;52.028;5.670;2023-08-06T01:29:45;18.20;99.90
27559;DHT22;15002;52.028;5.670;2023-08-06T01:32:14;18.40;99.90
27559;DHT22;15002;52.028;5.670;2023-08-06T01:34:43;18.30;99.90
27559;DHT22;15002;52.028;5.670;2023-08-06T01:37:10;18.50;99.90
27559;DHT22;15002;52.028;5.670;2023-08-06T01:39:36;18.30;99.90
27559;DHT22;15002;52.028;5.670;2023-08-06T01:42:02;18.50;99.90
27559;DHT22;15002;52.028;5.670;2023-08-06T01:44:28;18.60;99.90
27559;DHT22;15002;52.028;5.670;2023-08-06T01:46:53;18.40;99.90
27559;DHT22;15002;52.028;5.670;2023-08-06T01:49:19;18.40;99.90
27559;DHT22;15002;52.028;5.670;2023-08-06T01:51:44;18.20;99.90
27559;DHT22;15002;52.028;5.670;2023-08-06T01:54:10;18.00;99.90
27559;DHT22;15002;52.028;5.670;2023-08-06T01:56:36;18.20;99.90
27559;DHT22;15002;52.028;5.670;2023-08-06T01:59:01;18.00;99.90
27559;DHT22;15002;52.028;5.670;2023-08-06T02:01:27;18.00;99.90
27559;DHT22;15002;52.028;5.670;2023-08-06T02:03:53;17.90;99.90
27559;DHT22;15002;52.028;5.670;2023-08-06T02:06:18;18.10;99.90
27559;DHT22;15002;52.028;5.670;2023-08-06T02:08:44;18.30;99.90
27559;DHT22;15002;52.028;5.670;2023-08-06T02:11:09;18.30;99.90
27559;DHT22;15002;52.028;5.670;2023-08-06T02:13:35;18.20;99.90
27559;DHT22;15002;52.028;5.670;2023-08-06T02:16:01;18.30;99.90
27559;DHT22;15002;52.028;5.670;2023-08-06T02:18:26;18.10;99.90
27559;DHT22;15002;52.028;5.670;2023-08-06T02:20:59;18.40;99.90
27559;DHT22;15002;52.028;5.670;2023-08-06T02:23:25;18.50;99.90
27559;DHT22;15002;52.028;5.670;2023-08-06T02:26:04;18.40;99.90
27559;DHT22;15002;52.028;5.670;2023-08-06T02:28:33;18.50;99.90
27559;DHT22;15002;52.028;5.670;2023-08-06T02:30:58;18.30;99.90
27559;DHT22;15002;52.028;5.670;2023-08-06T02:33:24;18.10;99.90
27559;DHT22;15002;52.028;5.670;2023-08-06T02:35:50;18.40;99.90
27559;DHT22;15002;52.028;5.670;2023-08-06T02:38:15;18.20;99.90
27559;DHT22;15002;52.028;5.670;2023-08-06T02:40:45;18.00;99.90
27559;DHT22;15002;52.028;5.670;2023-08-06T02:43:11;17.90;99.90
27559;DHT22;15002;52.028;5.670;2023-08-06T02:45:36;17.70;99.90
27559;DHT22;15002;52.028;5.670;2023-08-06T02:48:02;17.60;99.90
27559;DHT22;15002;52.028;5.670;2023-08-06T02:50:28;17.70;99.90
27559;DHT22;15002;52.028;5.670;2023-08-06T02:52:54;17.80;99.90
27559;DHT22;15002;52.028;5.670;2023-08-06T02:55:19;17.70;99.90
27559;DHT22;15002;52.028;5.670;2023-08-06T02:57:45;17.90;99.90
27559;DHT22;15002;52.028;5.670;2023-08-06T03:00:10;18.10;99.90
27559;DHT22;15002;52.028;5.670;2023-08-06T03:02:37;18.10;99.90
27559;DHT22;15002;52.028;5.670;2023-08-06T03:05:03;17.90;99.90
27559;DHT22;15002;52.028;5.670;2023-08-06T03:07:29;17.70;99.90
27559;DHT22;15002;52.028;5.670;2023-08-06T03:09:54;17.70;99.90
27559;DHT22;15002;52.028;5.670;2023-08-06T03:12:20;18.00;99.90
27559;DHT22;15002;52.028;5.670;2023-08-06T03:14:46;17.90;99.90
27559;DHT22;15002;52.028;5.670;2023-08-06T03:17:11;18.00;99.90
27559;DHT22;15002;52.028;5.670;2023-08-06T03:19:37;18.00;99.90
27559;DHT22;15002;52.028;5.670;2023-08-06T03:22:03;17.70;99.90
27559;DHT22;15002;52.028;5.670;2023-08-06T03:24:28;17.80;99.90
27559;DHT22;15002;52.028;5.670;2023-08-06T03:26:54;17.70;99.90
27559;DHT22;15002;52.028;5.670;2023-08-06T03:29:19;17.70;99.90
27559;DHT22;15002;52.028;5.670;2023-08-06T03:31:46;17.70;99.90
27559;DHT22;15002;52.028;5.670;2023-08-06T03:34:12;17.70;99.90
27559;DHT22;15002;52.028;5.670;2023-08-06T03:36:38;17.80;99.90
27559;DHT22;15002;52.028;5.670;2023-08-06T03:39:03;17.80;99.90
27559;DHT22;15002;52.028;5.670;2023-08-06T03:41:29;17.90;99.90
27559;DHT22;15002;52.028;5.670;2023-08-06T03:43:54;17.90;99.90
27559;DHT22;15002;52.028;5.670;2023-08-06T03:46:20;17.80;99.90
27559;DHT22;15002;52.028;5.670;2023-08-06T03:48:46;17.90;99.90
27559;DHT22;15002;52.028;5.670;2023-08-06T03:51:11;17.80;99.90
27559;DHT22;15002;52.028;5.670;2023-08-06T03:53:37;17.90;99.90
27559;DHT22;15002;52.028;5.670;2023-08-06T03:56:03;18.00;99.90
27559;DHT22;15002;52.028;5.670;2023-08-06T03:58:28;18.00;99.90
27559;DHT22;15002;52.028;5.670;2023-08-06T04:01:02;17.90;99.90
27559;DHT22;15002;52.028;5.670;2023-08-06T04:03:28;18.00;99.90
27559;DHT22;15002;52.028;5.670;2023-08-06T04:05:54;18.20;99.90
27559;DHT22;15002;52.028;5.670;2023-08-06T04:08:20;18.00;99.90
27559;DHT22;15002;52.028;5.670;2023-08-06T04:10:48;18.00;99.90
27559;DHT22;15002;52.028;5.670;2023-08-06T04:13:14;17.90;99.90
27559;DHT22;15002;52.028;5.670;2023-08-06T04:15:41;17.90;99.90
27559;DHT22;15002;52.028;5.670;2023-08-06T04:18:06;17.90;99.90
27559;DHT22;15002;52.028;5.670;2023-08-06T04:20:32;17.80;99.90
27559;DHT22;15002;52.028;5.670;2023-08-06T04:22:57;17.80;99.90
27559;DHT22;15002;52.028;5.670;2023-08-06T04:25:23;17.80;99.90
27559;DHT22;15002;52.028;5.670;2023-08-06T04:27:49;17.70;99.90
27559;DHT22;15002;52.028;5.670;2023-08-06T04:30:15;17.70;99.90
27559;DHT22;15002;52.028;5.670;2023-08-06T04:32:41;17.80;99.90
27559;DHT22;15002;52.028;5.670;2023-08-06T04:35:07;17.70;99.90
27559;DHT22;15002;52.028;5.670;2023-08-06T04:37:32;17.70;99.90
27559;DHT22;15002;52.028;5.670;2023-08-06T04:39:58;17.70;99.90
27559;DHT22;15002;52.028;5.670;2023-08-06T04:42:24;17.80;99.90
27559;DHT22;15002;52.028;5.670;2023-08-06T04:44:50;17.80;99.90
27559;DHT22;15002;52.028;5.670;2023-08-06T04:47:15;17.90;99.90
27559;DHT22;15002;52.028;5.670;2023-08-06T04:49:41;17.90;99.90
27559;DHT22;15002;52.028;5.670;2023-08-06T04:52:07;18.00;99.90
27559;DHT22;15002;52.028;5.670;2023-08-06T04:54:32;18.00;99.90
27559;DHT22;15002;52.028;5.670;2023-08-06T04:56:58;18.10;99.90
27559;DHT22;15002;52.028;5.670;2023-08-06T04:59:24;18.10;99.90
27559;DHT22;15002;52.028;5.670;2023-08-06T05:01:49;18.10;99.90
27559;DHT22;15002;52.028;5.670;2023-08-06T05:04:15;18.40;99.90
27559;DHT22;15002;52.028;5.670;2023-08-06T05:06:40;18.20;99.90
27559;DHT22;15002;52.028;5.670;2023-08-06T05:09:06;18.20;99.90
27559;DHT22;15002;52.028;5.670;2023-08-06T05:11:32;18.30;99.90
27559;DHT22;15002;52.028;5.670;2023-08-06T05:13:58;18.40;99.90
27559;DHT22;15002;52.028;5.670;2023-08-06T05:16:24;18.30;99.90
27559;DHT22;15002;52.028;5.670;2023-08-06T05:18:49;18.50;99.90
27559;DHT22;15002;52.028;5.670;2023-08-06T05:21:15;18.30;99.90
27559;DHT22;15002;52.028;5.670;2023-08-06T05:23:42;18.20;99.90
27559;DHT22;15002;52.028;5.670;2023-08-06T05:26:07;18.40;99.90
27559;DHT22;15002;52.028;5.670;2023-08-06T05:28:34;18.30;99.90
27559;DHT22;15002;52.028;5.670;2023-08-06T05:31:03;18.40;99.90
27559;DHT22;15002;52.028;5.670;2023-08-06T05:33:29;18.30;99.90
27559;DHT22;15002;52.028;5.670;2023-08-06T05:35:55;18.30;99.90
27559;DHT22;15002;52.028;5.670;2023-08-06T05:38:20;18.50;99.90
27559;DHT22;15002;52.028;5.670;2023-08-06T05:40:46;18.50;99.90
27559;DHT22;15002;52.028;5.670;2023-08-06T05:43:12;18.50;99.90
27559;DHT22;15002;52.028;5.670;2023-08-06T05:45:37;18.50;99.90
27559;DHT22;15002;52.028;5.670;2023-08-06T05:48:03;18.40;99.90
27559;DHT22;15002;52.028;5.670;2023-08-06T05:50:29;18.30;99.90
27559;DHT22;15002;52.028;5.670;2023-08-06T05:52:54;18.40;99.90
27559;DHT22;15002;52.028;5.670;2023-08-06T05:55:20;18.30;99.90
27559;DHT22;15002;52.028;5.670;2023-08-06T05:57:46;18.50;99.90
27559;DHT22;15002;52.028;5.670;2023-08-06T06:00:12;18.50;99.90
27559;DHT22;15002;52.028;5.670;2023-08-06T06:02:37;18.40;99.90
27559;DHT22;15002;52.028;5.670;2023-08-06T06:05:03;18.40;99.90
27559;DHT22;15002;52.028;5.670;2023-08-06T06:07:29;18.40;99.90
27559;DHT22;15002;52.028;5.670;2023-08-06T06:09:54;18.30;99.90
27559;DHT22;15002;52.028;5.670;2023-08-06T06:12:20;18.30;99.90
27559;DHT22;15002;52.028;5.670;2023-08-06T06:14:47;18.40;99.90
27559;DHT22;15002;52.028;5.670;2023-08-06T06:17:13;18.50;99.90
27559;DHT22;15002;52.028;5.670;2023-08-06T06:19:39;18.60;99.90
27559;DHT22;15002;52.028;5.670;2023-08-06T06:22:04;18.60;99.90
27559;DHT22;15002;52.028;5.670;2023-08-06T06:24:30;18.60;99.90
27559;DHT22;15002;52.028;5.670;2023-08-06T06:26:55;18.60;99.90
27559;DHT22;15002;52.028;5.670;2023-08-06T06:29:21;18.60;99.90
27559;DHT22;15002;52.028;5.670;2023-08-06T06:31:47;18.70;99.90
27559;DHT22;15002;52.028;5.670;2023-08-06T06:34:12;18.70;99.90
27559;DHT22;15002;52.028;5.670;2023-08-06T06:36:38;18.70;99.90
27559;DHT22;15002;52.028;5.670;2023-08-06T06:39:03;18.70;99.90
27559;DHT22;15002;52.028;5.670;2023-08-06T06:41:29;19.00;99.90
27559;DHT22;15002;52.028;5.670;2023-08-06T06:43:57;18.90;99.90
27559;DHT22;15002;52.028;5.670;2023-08-06T06:46:22;18.80;99.90
27559;DHT22;15002;52.028;5.670;2023-08-06T06:48:48;18.80;99.90
27559;DHT22;15002;52.028;5.670;2023-08-06T06:51:13;18.80;99.90
27559;DHT22;15002;52.028;5.670;2023-08-06T06:53:39;19.00;99.90
27559;DHT22;15002;52.028;5.670;2023-08-06T06:56:06;19.00;99.90
27559;DHT22;15002;52.028;5.670;2023-08-06T06:58:32;19.10;99.90
27559;DHT22;15002;52.028;5.670;2023-08-06T07:00:58;19.10;99.90
27559;DHT22;15002;52.028;5.670;2023-08-06T07:03:23;19.20;99.90
27559;DHT22;15002;52.028;5.670;2023-08-06T07:05:49;19.20;99.90
27559;DHT22;15002;52.028;5.670;2023-08-06T07:08:15;19.30;99.90
27559;DHT22;15002;52.028;5.670;2023-08-06T07:10:41;19.40;99.90
27559;DHT22;15002;52.028;5.670;2023-08-06T07:13:08;19.40;99.90
27559;DHT22;15002;52.028;5.670;2023-08-06T07:15:33;19.50;99.90
27559;DHT22;15002;52.028;5.670;2023-08-06T07:17:59;19.30;99.90
27559;DHT22;15002;52.028;5.670;2023-08-06T07:20:25;19.20;99.90
27559;DHT22;15002;52.028;5.670;2023-08-06T07:22:50;19.10;99.90
27559;DHT22;15002;52.028;5.670;2023-08-06T07:25:16;19.30;99.90
27559;DHT22;15002;52.028;5.670;2023-08-06T07:27:42;19.30;99.90
27559;DHT22;15002;52.028;5.670;2023-08-06T07:30:08;19.40;99.90
27559;DHT22;15002;52.028;5.670;2023-08-06T07:32:34;19.40;99.90
27559;DHT22;15002;52.028;5.670;2023-08-06T07:34:59;19.50;99.90
27559;DHT22;15002;52.028;5.670;2023-08-06T07:37:26;19.50;99.90
27559;DHT22;15002;52.028;5.670;2023-08-06T07:39:55;19.70;99.90
27559;DHT22;15002;52.028;5.670;2023-08-06T07:42:21;19.70;99.90
27559;DHT22;15002;52.028;5.670;2023-08-06T07:45:06;19.90;99.90
27559;DHT22;15002;52.028;5.670;2023-08-06T07:47:32;20.10;99.90
27559;DHT22;15002;52.028;5.670;2023-08-06T07:49:57;20.10;99.90
27559;DHT22;15002;52.028;5.670;2023-08-06T07:52:23;19.80;99.90
27559;DHT22;15002;52.028;5.670;2023-08-06T07:54:48;20.00;99.90
27559;DHT22;15002;52.028;5.670;2023-08-06T07:57:14;19.80;99.90
27559;DHT22;15002;52.028;5.670;2023-08-06T07:59:40;19.80;99.90
27559;DHT22;15002;52.028;5.670;2023-08-06T08:02:06;19.70;99.90
27559;DHT22;15002;52.028;5.670;2023-08-06T08:04:32;19.80;99.90
27559;DHT22;15002;52.028;5.670;2023-08-06T08:06:57;19.90;99.90
27559;DHT22;15002;52.028;5.670;2023-08-06T08:09:23;19.90;99.90
27559;DHT22;15002;52.028;5.670;2023-08-06T08:11:48;19.80;99.90
27559;DHT22;15002;52.028;5.670;2023-08-06T08:14:15;19.40;99.90
27559;DHT22;15002;52.028;5.670;2023-08-06T08:16:41;19.70;99.90
27559;DHT22;15002;52.028;5.670;2023-08-06T08:19:07;19.70;99.90
27559;DHT22;15002;52.028;5.670;2023-08-06T08:21:32;19.70;99.90
27559;DHT22;15002;52.028;5.670;2023-08-06T08:24:00;19.50;99.90
27559;DHT22;15002;52.028;5.670;2023-08-06T08:26:26;19.50;99.90
27559;DHT22;15002;52.028;5.670;2023-08-06T08:28:53;19.40;99.90
27559;DHT22;15002;52.028;5.670;2023-08-06T08:31:19;19.60;99.90
27559;DHT22;15002;52.028;5.670;2023-08-06T08:33:45;19.70;99.90
27559;DHT22;15002;52.028;5.670;2023-08-06T08:36:10;19.40;99.90
27559;DHT22;15002;52.028;5.670;2023-08-06T08:38:36;19.80;99.90
27559;DHT22;15002;52.028;5.670;2023-08-06T08:41:01;19.80;99.90
27559;DHT22;15002;52.028;5.670;2023-08-06T08:43:27;19.80;99.90
27559;DHT22;15002;52.028;5.670;2023-08-06T08:45:54;19.70;99.90
27559;DHT22;15002;52.028;5.670;2023-08-06T08:48:26;20.00;99.90
27559;DHT22;15002;52.028;5.670;2023-08-06T08:50:52;19.70;99.90
27559;DHT22;15002;52.028;5.670;2023-08-06T08:53:18;19.70;99.90
27559;DHT22;15002;52.028;5.670;2023-08-06T08:55:48;19.80;99.90
27559;DHT22;15002;52.028;5.670;2023-08-06T08:58:14;20.00;99.90
27559;DHT22;15002;52.028;5.670;2023-08-06T09:00:45;20.20;99.90
27559;DHT22;15002;52.028;5.670;2023-08-06T09:03:11;20.10;99.90
27559;DHT22;15002;52.028;5.670;2023-08-06T09:05:41;20.20;99.90
27559;DHT22;15002;52.028;5.670;2023-08-06T09:08:11;20.40;99.90
27559;DHT22;15002;52.028;5.670;2023-08-06T09:10:39;20.70;99.90
27559;DHT22;15002;52.028;5.670;2023-08-06T09:13:06;20.70;99.90
27559;DHT22;15002;52.028;5.670;2023-08-06T09:15:32;20.60;99.90
27559;DHT22;15002;52.028;5.670;2023-08-06T09:17:58;20.60;99.90
27559;DHT22;15002;52.028;5.670;2023-08-06T09:20:24;20.40;99.90
27559;DHT22;15002;52.028;5.670;2023-08-06T09:22:53;20.20;99.90
27559;DHT22;15002;52.028;5.670;2023-08-06T09:25:23;20.20;99.90
27559;DHT22;15002;52.028;5.670;2023-08-06T09:27:50;20.10;99.90
27559;DHT22;15002;52.028;5.670;2023-08-06T09:30:43;19.90;99.90
27559;DHT22;15002;52.028;5.670;2023-08-06T09:33:09;19.90;99.90
27559;DHT22;15002;52.028;5.670;2023-08-06T09:35:39;20.20;99.90
27559;DHT22;15002;52.028;5.670;2023-08-06T09:38:06;19.80;99.90
27559;DHT22;15002;52.028;5.670;2023-08-06T09:40:33;19.60;99.90
27559;DHT22;15002;52.028;5.670;2023-08-06T09:42:59;19.50;99.90
27559;DHT22;15002;52.028;5.670;2023-08-06T09:45:32;19.40;99.90
27559;DHT22;15002;52.028;5.670;2023-08-06T09:48:00;19.10;99.90
27559;DHT22;15002;52.028;5.670;2023-08-06T09:50:30;19.10;99.90
27559;DHT22;15002;52.028;5.670;2023-08-06T09:53:01;18.90;99.90
27559;DHT22;15002;52.028;5.670;2023-08-06T09:55:27;19.00;99.90
27559;DHT22;15002;52.028;5.670;2023-08-06T09:57:53;19.10;99.90
27559;DHT22;15002;52.028;5.670;2023-08-06T10:00:19;18.80;99.90
27559;DHT22;15002;52.028;5.670;2023-08-06T10:02:48;18.80;99.90
27559;DHT22;15002;52.028;5.670;2023-08-06T10:05:15;19.00;99.90
27559;DHT22;15002;52.028;5.670;2023-08-06T10:07:43;18.80;99.90
27559;DHT22;15002;52.028;5.670;2023-08-06T10:10:09;18.90;99.90
27559;DHT22;15002;52.028;5.670;2023-08-06T10:12:39;18.90;99.90
27559;DHT22;15002;52.028;5.670;2023-08-06T10:15:09;18.90;99.90
27559;DHT22;15002;52.028;5.670;2023-08-06T10:17:37;18.90;99.90
27559;DHT22;15002;52.028;5.670;2023-08-06T10:20:07;19.00;99.90
27559;DHT22;15002;52.028;5.670;2023-08-06T10:22:34;19.10;99.90
27559;DHT22;15002;52.028;5.670;2023-08-06T10:25:00;18.90;99.90
27559;DHT22;15002;52.028;5.670;2023-08-06T10:27:56;19.00;99.90
27559;DHT22;15002;52.028;5.670;2023-08-06T10:32:52;18.70;99.90
27559;DHT22;15002;52.028;5.670;2023-08-06T10:35:41;18.80;99.90
27559;DHT22;15002;52.028;5.670;2023-08-06T10:38:12;18.60;99.90
27559;DHT22;15002;52.028;5.670;2023-08-06T10:40:43;18.80;99.90
27559;DHT22;15002;52.028;5.670;2023-08-06T10:43:34;18.60;99.90
27559;DHT22;15002;52.028;5.670;2023-08-06T10:46:08;18.50;99.90
27559;DHT22;15002;52.028;5.670;2023-08-06T10:51:08;18.80;99.90
27559;DHT22;15002;52.028;5.670;2023-08-06T10:53:34;18.80;99.90
27559;DHT22;15002;52.028;5.670;2023-08-06T10:56:39;18.80;99.90
27559;DHT22;15002;52.028;5.670;2023-08-06T10:58:58;18.80;99.90
27559;DHT22;15002;52.028;5.670;2023-08-06T11:01:24;18.80;99.90
27559;DHT22;15002;52.028;5.670;2023-08-06T11:03:50;18.80;99.90
27559;DHT22;15002;52.028;5.670;2023-08-06T11:06:21;18.80;99.90
27559;DHT22;15002;52.028;5.670;2023-08-06T11:08:52;19.00;99.90
27559;DHT22;15002;52.028;5.670;2023-08-06T11:11:19;18.70;99.90
27559;DHT22;15002;52.028;5.670;2023-08-06T11:13:49;18.70;99.90
27559;DHT22;15002;52.028;5.670;2023-08-06T11:16:22;18.80;99.90
27559;DHT22;15002;52.028;5.670;2023-08-06T11:18:50;18.70;99.90
27559;DHT22;15002;52.028;5.670;2023-08-06T11:21:22;18.70;99.90
27559;DHT22;15002;52.028;5.670;2023-08-06T11:23:50;18.70;99.90
27559;DHT22;15002;52.028;5.670;2023-08-06T11:26:20;18.90;99.90
27559;DHT22;15002;52.028;5.670;2023-08-06T11:28:45;18.90;99.90
27559;DHT22;15002;52.028;5.670;2023-08-06T11:31:21;18.70;99.90
27559;DHT22;15002;52.028;5.670;2023-08-06T11:33:48;18.60;99.90
27559;DHT22;15002;52.028;5.670;2023-08-06T11:36:13;18.70;99.90
27559;DHT22;15002;52.028;5.670;2023-08-06T11:38:39;18.80;99.90
27559;DHT22;15002;52.028;5.670;2023-08-06T11:41:06;18.80;99.90
27559;DHT22;15002;52.028;5.670;2023-08-06T11:43:32;18.60;99.90
27559;DHT22;15002;52.028;5.670;2023-08-06T11:45:58;18.70;99.90
27559;DHT22;15002;52.028;5.670;2023-08-06T11:48:25;18.80;99.90
27559;DHT22;15002;52.028;5.670;2023-08-06T11:50:54;18.70;99.90
27559;DHT22;15002;52.028;5.670;2023-08-06T11:53:20;18.80;99.90
27559;DHT22;15002;52.028;5.670;2023-08-06T11:55:45;18.80;99.90
27559;DHT22;15002;52.028;5.670;2023-08-06T11:58:11;18.80;99.90
27559;DHT22;15002;52.028;5.670;2023-08-06T12:00:37;18.80;99.90
27559;DHT22;15002;52.028;5.670;2023-08-06T12:03:05;18.90;99.90
27559;DHT22;15002;52.028;5.670;2023-08-06T12:05:31;19.00;99.90
27559;DHT22;15002;52.028;5.670;2023-08-06T12:08:00;19.00;99.90
27559;DHT22;15002;52.028;5.670;2023-08-06T12:10:27;19.10;99.90
27559;DHT22;15002;52.028;5.670;2023-08-06T12:12:54;18.90;99.90
27559;DHT22;15002;52.028;5.670;2023-08-06T12:15:20;19.10;99.90
27559;DHT22;15002;52.028;5.670;2023-08-06T12:17:46;19.10;99.90
27559;DHT22;15002;52.028;5.670;2023-08-06T12:20:12;19.00;99.90
27559;DHT22;15002;52.028;5.670;2023-08-06T12:22:38;19.20;99.90
27559;DHT22;15002;52.028;5.670;2023-08-06T12:25:07;19.20;99.90
27559;DHT22;15002;52.028;5.670;2023-08-06T12:27:37;19.10;99.90
27559;DHT22;15002;52.028;5.670;2023-08-06T12:30:04;19.10;99.90
27559;DHT22;15002;52.028;5.670;2023-08-06T12:32:30;19.10;99.90
27559;DHT22;15002;52.028;5.670;2023-08-06T12:34:56;19.00;99.90
27559;DHT22;15002;52.028;5.670;2023-08-06T12:37:21;18.90;99.90
27559;DHT22;15002;52.028;5.670;2023-08-06T12:39:48;18.90;99.90
27559;DHT22;15002;52.028;5.670;2023-08-06T12:42:14;19.00;99.90
27559;DHT22;15002;52.028;5.670;2023-08-06T12:44:39;18.90;99.90
27559;DHT22;15002;52.028;5.670;2023-08-06T12:47:06;19.00;99.90
27559;DHT22;15002;52.028;5.670;2023-08-06T12:49:32;18.90;99.90
27559;DHT22;15002;52.028;5.670;2023-08-06T12:51:58;19.00;99.90
27559;DHT22;15002;52.028;5.670;2023-08-06T12:54:25;19.00;99.90
27559;DHT22;15002;52.028;5.670;2023-08-06T12:56:51;19.00;99.90
27559;DHT22;15002;52.028;5.670;2023-08-06T12:59:17;19.00;99.90
27559;DHT22;15002;52.028;5.670;2023-08-06T13:01:44;19.00;99.90
27559;DHT22;15002;52.028;5.670;2023-08-06T13:04:10;19.10;99.90
27559;DHT22;15002;52.028;5.670;2023-08-06T13:06:36;19.10;99.90
27559;DHT22;15002;52.028;5.670;2023-08-06T13:09:06;19.30;99.90
27559;DHT22;15002;52.028;5.670;2023-08-06T13:11:34;19.20;99.90
27559;DHT22;15002;52.028;5.670;2023-08-06T13:14:05;19.20;99.90
27559;DHT22;15002;52.028;5.670;2023-08-06T13:16:31;19.20;99.90
27559;DHT22;15002;52.028;5.670;2023-08-06T13:18:56;19.20;99.90
27559;DHT22;15002;52.028;5.670;2023-08-06T13:21:22;19.20;99.90
27559;DHT22;15002;52.028;5.670;2023-08-06T13:23:47;19.20;99.90
27559;DHT22;15002;52.028;5.670;2023-08-06T13:26:13;19.30;99.90
27559;DHT22;15002;52.028;5.670;2023-08-06T13:28:41;19.20;99.90
27559;DHT22;15002;52.028;5.670;2023-08-06T13:31:07;19.30;99.90
27559;DHT22;15002;52.028;5.670;2023-08-06T13:33:32;19.30;99.90
27559;DHT22;15002;52.028;5.670;2023-08-06T13:35:58;19.20;99.90
27559;DHT22;15002;52.028;5.670;2023-08-06T13:38:23;19.20;99.90
27559;DHT22;15002;52.028;5.670;2023-08-06T13:40:49;19.20;99.90
27559;DHT22;15002;52.028;5.670;2023-08-06T13:43:15;19.10;99.90
27559;DHT22;15002;52.028;5.670;2023-08-06T13:45:42;19.20;99.90
27559;DHT22;15002;52.028;5.670;2023-08-06T13:48:08;19.20;99.90
27559;DHT22;15002;52.028;5.670;2023-08-06T13:50:36;19.30;99.90
27559;DHT22;15002;52.028;5.670;2023-08-06T13:53:02;19.20;99.90
27559;DHT22;15002;52.028;5.670;2023-08-06T13:55:28;19.10;99.90
27559;DHT22;15002;52.028;5.670;2023-08-06T13:57:54;19.10;99.90
27559;DHT22;15002;52.028;5.670;2023-08-06T14:00:19;19.20;99.90
27559;DHT22;15002;52.028;5.670;2023-08-06T14:02:45;19.20;99.90
27559;DHT22;15002;52.028;5.670;2023-08-06T14:05:11;19.20;99.90
27559;DHT22;15002;52.028;5.670;2023-08-06T14:07:36;19.20;99.90
27559;DHT22;15002;52.028;5.670;2023-08-06T14:10:02;19.30;99.90
27559;DHT22;15002;52.028;5.670;2023-08-06T14:12:28;19.30;99.90
27559;DHT22;15002;52.028;5.670;2023-08-06T14:14:53;19.30;99.90
27559;DHT22;15002;52.028;5.670;2023-08-06T14:17:19;19.20;99.90
27559;DHT22;15002;52.028;5.670;2023-08-06T14:19:45;19.20;99.90
27559;DHT22;15002;52.028;5.670;2023-08-06T14:22:10;19.30;99.90
27559;DHT22;15002;52.028;5.670;2023-08-06T14:24:36;19.30;99.90
27559;DHT22;15002;52.028;5.670;2023-08-06T14:27:02;19.40;99.90
27559;DHT22;15002;52.028;5.670;2023-08-06T14:29:29;19.30;99.90
27559;DHT22;15002;52.028;5.670;2023-08-06T14:31:55;19.20;99.90
27559;DHT22;15002;52.028;5.670;2023-08-06T14:34:21;19.10;99.90
27559;DHT22;15002;52.028;5.670;2023-08-06T14:36:46;19.20;99.90
27559;DHT22;15002;52.028;5.670;2023-08-06T14:39:12;19.30;99.90
27559;DHT22;15002;52.028;5.670;2023-08-06T14:41:37;19.30;99.90
27559;DHT22;15002;52.028;5.670;2023-08-06T14:44:03;19.30;99.90
27559;DHT22;15002;52.028;5.670;2023-08-06T14:46:29;19.30;99.90
27559;DHT22;15002;52.028;5.670;2023-08-06T14:48:54;19.20;99.90
27559;DHT22;15002;52.028;5.670;2023-08-06T14:51:20;19.20;99.90
27559;DHT22;15002;52.028;5.670;2023-08-06T14:53:46;19.10;99.90
27559;DHT22;15002;52.028;5.670;2023-08-06T14:56:12;19.20;99.90
27559;DHT22;15002;52.028;5.670;2023-08-06T14:58:38;19.40;99.90
27559;DHT22;15002;52.028;5.670;2023-08-06T15:01:03;19.30;99.90
27559;DHT22;15002;52.028;5.670;2023-08-06T15:03:29;19.50;99.90
27559;DHT22;15002;52.028;5.670;2023-08-06T15:05:56;19.40;99.90
27559;DHT22;15002;52.028;5.670;2023-08-06T15:08:22;19.30;99.90
27559;DHT22;15002;52.028;5.670;2023-08-06T15:10:51;19.40;99.90
27559;DHT22;15002;52.028;5.670;2023-08-06T15:13:18;19.40;99.90
27559;DHT22;15002;52.028;5.670;2023-08-06T15:15:45;19.30;99.90
27559;DHT22;15002;52.028;5.670;2023-08-06T15:18:11;19.40;99.90
27559;DHT22;15002;52.028;5.670;2023-08-06T15:20:37;19.30;99.90
27559;DHT22;15002;52.028;5.670;2023-08-06T15:23:02;19.30;99.90
27559;DHT22;15002;52.028;5.670;2023-08-06T15:25:28;19.30;99.90
27559;DHT22;15002;52.028;5.670;2023-08-06T15:27:54;19.30;99.90
27559;DHT22;15002;52.028;5.670;2023-08-06T15:30:20;19.40;99.90
27559;DHT22;15002;52.028;5.670;2023-08-06T15:32:46;19.30;99.90
27559;DHT22;15002;52.028;5.670;2023-08-06T15:35:13;19.40;99.90
27559;DHT22;15002;52.028;5.670;2023-08-06T15:37:39;19.40;99.90